createdAt,value
2023-02-12T00:00:54.015Z,68.40
2023-02-12T00:01:54.071Z,69.20
2023-02-12T00:02:54.071Z,83.70
2023-02-12T00:03:54.052Z,74.00
2023-02-12T00:04:53.989Z,71.80
2023-02-12T00:05:54.295Z,79.70
2023-02-12T00:06:53.910Z,68.60
2023-02-12T00:07:53.897Z,77.60
2023-02-12T00:08:53.885Z,79.20
2023-02-12T00:09:53.886Z,70.40
2023-02-12T00:10:53.832Z,75.80
2023-02-12T00:11:53.814Z,79.30
2023-02-12T00:12:53.799Z,70.20
2023-02-12T00:13:53.780Z,73.60
2023-02-12T00:14:53.788Z,78.40
2023-02-12T00:15:54.205Z,86.70
2023-02-12T00:16:53.721Z,80.70
2023-02-12T00:17:53.705Z,86.50
2023-02-12T00:18:53.689Z,79.20
2023-02-12T00:19:53.705Z,87.70
2023-02-12T00:20:53.661Z,85.90
2023-02-12T00:21:53.654Z,81.40
2023-02-12T00:22:53.626Z,73.70
2023-02-12T00:23:53.631Z,93.50
2023-02-12T00:24:53.624Z,87.60
2023-02-12T00:25:53.932Z,86.90
2023-02-12T00:26:53.566Z,101.90
2023-02-12T00:27:53.547Z,82.60
2023-02-12T00:28:53.525Z,93.90
2023-02-12T00:29:53.535Z,77.30
2023-02-12T00:30:53.581Z,78.50
2023-02-12T00:31:53.471Z,74.30
2023-02-12T00:32:53.459Z,74.40
2023-02-12T00:33:53.437Z,77.20
2023-02-12T00:34:53.449Z,79.20
2023-02-12T00:35:54.785Z,75.10
2023-02-12T00:36:53.390Z,69.20
2023-02-12T00:37:53.365Z,71.00
2023-02-12T00:38:53.382Z,72.70
2023-02-12T00:39:53.366Z,81.50
2023-02-12T00:40:53.324Z,76.70
2023-02-12T00:41:53.299Z,69.50
2023-02-12T00:42:53.324Z,69.80
2023-02-12T00:43:53.262Z,82.20
2023-02-12T00:44:53.278Z,78.80
2023-02-12T00:45:53.517Z,85.30
2023-02-12T00:46:53.218Z,85.20
2023-02-12T00:47:53.270Z,77.00
2023-02-12T00:48:53.181Z,100.80
2023-02-12T00:49:53.190Z,70.10
2023-02-12T00:50:53.140Z,75.20
2023-02-12T00:51:53.138Z,75.40
2023-02-12T00:52:53.128Z,61.90
2023-02-12T00:53:53.101Z,73.40
2023-02-12T00:54:53.114Z,89.30
2023-02-12T00:55:53.612Z,72.90
2023-02-12T00:56:53.079Z,88.70
2023-02-12T00:57:53.026Z,89.20
2023-02-12T00:58:52.998Z,79.40
2023-02-12T00:59:53.004Z,74.50
2023-02-12T01:00:52.962Z,84.60
2023-02-12T01:01:53.031Z,80.50
2023-02-12T01:02:52.929Z,80.90
2023-02-12T01:03:52.920Z,79.50
2023-02-12T01:04:52.963Z,70.20
2023-02-12T01:05:54.403Z,90.20
2023-02-12T01:06:52.859Z,75.40
2023-02-12T01:07:52.852Z,88.20
2023-02-12T01:08:52.832Z,77.90
2023-02-12T01:09:52.838Z,74.10
2023-02-12T01:10:52.793Z,61.90
2023-02-12T01:11:52.779Z,75.30
2023-02-12T01:12:52.752Z,77.60
2023-02-12T01:13:52.748Z,92.80
2023-02-12T01:14:52.765Z,78.70
2023-02-12T01:15:53.003Z,68.70
2023-02-12T01:16:52.700Z,79.80
2023-02-12T01:17:52.677Z,83.10
2023-02-12T01:18:55.485Z,69.90
2023-02-12T01:19:53.723Z,66.00
2023-02-12T01:20:52.625Z,76.00
2023-02-12T01:21:52.596Z,70.30
2023-02-12T01:22:52.595Z,68.00
2023-02-12T01:23:52.575Z,74.00
2023-02-12T01:24:52.579Z,82.20
2023-02-12T01:25:52.811Z,70.50
2023-02-12T01:26:52.513Z,73.10
2023-02-12T01:27:52.502Z,75.60
2023-02-12T01:28:52.485Z,69.90
2023-02-12T01:29:52.496Z,62.80
2023-02-12T01:30:52.561Z,78.10
2023-02-12T01:31:52.490Z,67.70
2023-02-12T01:32:52.415Z,70.30
2023-02-12T01:33:52.412Z,69.60
2023-02-12T01:34:52.419Z,73.60
2023-02-12T01:35:52.567Z,73.30
2023-02-12T01:36:52.358Z,66.00
2023-02-12T01:37:52.337Z,75.70
2023-02-12T01:38:52.342Z,89.40
2023-02-12T01:39:52.321Z,80.30
2023-02-12T01:40:52.339Z,70.60
2023-02-12T01:41:52.286Z,65.40
2023-02-12T01:42:52.257Z,66.80
2023-02-12T01:43:52.231Z,65.40
2023-02-12T01:44:52.240Z,67.70
2023-02-12T01:45:52.239Z,61.60
2023-02-12T01:46:52.340Z,71.70
2023-02-12T01:47:52.167Z,64.00
2023-02-12T01:48:52.169Z,70.60
2023-02-12T01:49:52.166Z,62.70
2023-02-12T01:50:52.128Z,61.70
2023-02-12T01:51:52.104Z,72.00
2023-02-12T01:52:52.082Z,65.10
2023-02-12T01:53:52.057Z,69.30
2023-02-12T01:54:52.071Z,69.40
2023-02-12T01:55:52.085Z,62.00
2023-02-12T01:56:52.013Z,62.90
2023-02-12T01:57:51.995Z,60.50
2023-02-12T01:58:51.967Z,65.30
2023-02-12T01:59:51.979Z,67.00
2023-02-12T02:00:52.010Z,67.40
2023-02-12T02:01:51.970Z,64.30
2023-02-12T02:02:51.926Z,68.80
2023-02-12T02:03:51.897Z,69.30
2023-02-12T02:04:51.903Z,62.80
2023-02-12T02:05:51.859Z,64.20
2023-02-12T02:06:51.831Z,60.60
2023-02-12T02:07:51.827Z,63.60
2023-02-12T02:08:51.799Z,67.10
2023-02-12T02:09:51.819Z,63.50
2023-02-12T02:10:51.766Z,63.30
2023-02-12T02:11:51.751Z,63.00
2023-02-12T02:12:51.726Z,66.30
2023-02-12T02:13:51.718Z,67.90
2023-02-12T02:14:51.718Z,63.70
2023-02-12T02:15:51.718Z,67.30
2023-02-12T02:16:51.663Z,66.80
2023-02-12T02:17:51.640Z,66.70
2023-02-12T02:18:51.638Z,68.20
2023-02-12T02:19:51.643Z,74.80
2023-02-12T02:20:51.634Z,62.00
2023-02-12T02:22:23.962Z,61.10
2023-02-12T02:22:51.571Z,68.60
2023-02-12T02:23:52.558Z,68.50
2023-02-12T02:24:51.565Z,65.80
2023-02-12T02:25:51.511Z,67.30
2023-02-12T02:26:51.488Z,74.30
2023-02-12T02:27:52.485Z,78.10
2023-02-12T02:28:51.469Z,55.20
2023-02-12T02:29:51.473Z,65.00
2023-02-12T02:30:51.474Z,80.00
2023-02-12T02:31:51.463Z,74.20
2023-02-12T02:32:51.436Z,52.30
2023-02-12T02:33:51.383Z,69.80
2023-02-12T02:34:51.593Z,78.70
2023-02-12T02:35:51.343Z,61.90
2023-02-12T02:37:00.592Z,61.90
2023-02-12T02:37:53.294Z,61.60
2023-02-12T02:38:51.279Z,73.80
2023-02-12T02:39:51.338Z,64.10
2023-02-12T02:40:51.252Z,68.40
2023-02-12T02:41:51.244Z,68.30
2023-02-12T02:42:51.222Z,67.30
2023-02-12T02:43:51.213Z,67.30
2023-02-12T02:44:51.237Z,76.00
2023-02-12T02:45:51.225Z,56.60
2023-02-12T02:46:51.248Z,54.90
2023-02-12T02:47:51.178Z,60.10
2023-02-12T02:48:51.128Z,47.80
2023-02-12T02:49:51.119Z,66.90
2023-02-12T02:50:51.108Z,53.90
2023-02-12T02:51:51.044Z,61.60
2023-02-12T02:52:52.057Z,53.70
2023-02-12T02:53:51.022Z,54.50
2023-02-12T02:54:50.999Z,52.90
2023-02-12T02:55:51.104Z,59.80
2023-02-12T02:56:50.970Z,50.20
2023-02-12T02:57:50.967Z,56.80
2023-02-12T02:58:50.949Z,58.50
2023-02-12T02:59:50.930Z,51.00
2023-02-12T03:00:50.942Z,49.20
2023-02-12T03:01:50.895Z,52.80
2023-02-12T03:02:50.887Z,62.60
2023-02-12T03:03:50.849Z,47.40
2023-02-12T03:04:50.864Z,48.50
2023-02-12T03:05:50.844Z,47.90
2023-02-12T03:06:50.826Z,44.40
2023-02-12T03:07:50.806Z,51.20
2023-02-12T03:08:50.798Z,45.70
2023-02-12T03:09:50.747Z,45.70
2023-02-12T03:10:50.791Z,48.10
2023-02-12T03:11:50.809Z,43.20
2023-02-12T03:12:50.772Z,60.80
2023-02-12T03:13:50.672Z,43.70
2023-02-12T03:14:50.647Z,44.40
2023-02-12T03:15:50.662Z,38.90
2023-02-12T03:16:50.615Z,41.90
2023-02-12T03:17:50.611Z,40.00
2023-02-12T03:18:50.597Z,43.30
2023-02-12T03:19:50.572Z,46.40
2023-02-12T03:20:50.583Z,38.80
2023-02-12T03:21:50.523Z,38.50
2023-02-12T03:22:50.526Z,43.30
2023-02-12T03:23:50.497Z,46.10
2023-02-12T03:24:50.497Z,44.00
2023-02-12T03:25:50.500Z,41.40
2023-02-12T03:26:50.461Z,36.30
2023-02-12T03:27:50.464Z,36.70
2023-02-12T03:28:50.426Z,39.80
2023-02-12T03:29:50.477Z,38.70
2023-02-12T03:30:50.420Z,36.00
2023-02-12T03:31:50.394Z,37.50
2023-02-12T03:32:50.344Z,43.40
2023-02-12T03:33:50.331Z,39.90
2023-02-12T03:34:50.314Z,38.90
2023-02-12T03:35:50.329Z,47.80
2023-02-12T03:36:50.304Z,35.60
2023-02-12T03:37:50.276Z,36.80
2023-02-12T03:38:50.343Z,40.60
2023-02-12T03:39:50.238Z,34.60
2023-02-12T03:40:50.249Z,36.60
2023-02-12T03:41:50.203Z,47.10
2023-02-12T03:42:50.167Z,40.30
2023-02-12T03:43:50.149Z,37.20
2023-02-12T03:44:50.153Z,37.70
2023-02-12T03:45:50.231Z,35.00
2023-02-12T03:46:50.189Z,45.40
2023-02-12T03:47:50.273Z,41.20
2023-02-12T03:48:50.190Z,38.50
2023-02-12T03:49:50.066Z,46.70
2023-02-12T03:50:50.071Z,37.50
2023-02-12T03:51:50.111Z,41.80
2023-02-12T03:52:50.137Z,41.90
2023-02-12T03:53:49.986Z,45.20
2023-02-12T03:54:49.948Z,43.70
2023-02-12T03:55:50.989Z,47.30
2023-02-12T03:56:49.928Z,52.20
2023-02-12T03:57:49.916Z,54.70
2023-02-12T03:58:49.946Z,50.90
2023-02-12T03:59:49.870Z,64.40
2023-02-12T04:00:49.903Z,56.60
2023-02-12T04:01:49.991Z,51.60
2023-02-12T04:02:49.879Z,48.30
2023-02-12T04:03:49.913Z,40.10
2023-02-12T04:04:49.893Z,55.30
2023-02-12T04:05:49.818Z,45.10
2023-02-12T04:06:49.810Z,53.60
2023-02-12T04:07:49.730Z,47.40
2023-02-12T04:08:49.729Z,40.40
2023-02-12T04:09:49.716Z,47.40
2023-02-12T04:10:49.730Z,42.50
2023-02-12T04:11:49.666Z,50.50
2023-02-12T04:12:49.651Z,54.70
2023-02-12T04:13:49.653Z,48.00
2023-02-12T04:14:49.631Z,50.40
2023-02-12T04:15:49.628Z,40.00
2023-02-12T04:16:49.634Z,41.90
2023-02-12T04:17:49.572Z,51.50
2023-02-12T04:18:49.541Z,54.90
2023-02-12T04:19:49.565Z,42.50
2023-02-12T04:20:49.560Z,54.10
2023-02-12T04:21:49.496Z,37.40
2023-02-12T04:22:49.481Z,38.10
2023-02-12T04:23:49.459Z,48.00
2023-02-12T04:24:49.434Z,37.00
2023-02-12T04:25:49.454Z,36.60
2023-02-12T04:26:49.409Z,42.10
2023-02-12T04:27:49.405Z,44.10
2023-02-12T04:28:50.371Z,35.70
2023-02-12T04:29:49.371Z,31.80
2023-02-12T04:30:49.460Z,36.10
2023-02-12T04:31:49.506Z,33.70
2023-02-12T04:32:49.315Z,38.10
2023-02-12T04:33:49.302Z,32.90
2023-02-12T04:34:49.380Z,43.50
2023-02-12T04:35:49.812Z,40.30
2023-02-12T04:36:49.409Z,32.30
2023-02-12T04:37:49.223Z,42.00
2023-02-12T04:38:49.212Z,36.30
2023-02-12T04:39:49.309Z,35.20
2023-02-12T04:40:49.229Z,40.00
2023-02-12T04:41:49.185Z,38.70
2023-02-12T04:42:49.192Z,37.80
2023-02-12T04:43:49.150Z,36.50
2023-02-12T04:44:49.105Z,37.80
2023-02-12T04:45:49.131Z,31.50
2023-02-12T04:46:49.072Z,39.60
2023-02-12T04:47:49.044Z,37.90
2023-02-12T04:48:49.134Z,39.10
2023-02-12T04:49:49.108Z,42.00
2023-02-12T04:50:49.016Z,40.30
2023-02-12T04:51:49.033Z,37.30
2023-02-12T04:52:49.113Z,39.00
2023-02-12T04:53:48.974Z,31.20
2023-02-12T04:54:48.962Z,43.70
2023-02-12T04:55:48.975Z,39.60
2023-02-12T04:56:48.892Z,33.80
2023-02-12T04:57:48.904Z,31.40
2023-02-12T04:58:48.888Z,32.00
2023-02-12T04:59:48.965Z,38.90
2023-02-12T05:00:48.852Z,31.40
2023-02-12T05:01:48.972Z,29.70
2023-02-12T05:02:48.929Z,36.60
2023-02-12T05:03:48.901Z,36.20
2023-02-12T05:04:48.818Z,31.70
2023-02-12T05:05:48.880Z,32.20
2023-02-12T05:06:48.895Z,43.30
2023-02-12T05:07:48.707Z,36.50
2023-02-12T05:08:48.687Z,34.40
2023-02-12T05:09:48.705Z,28.70
2023-02-12T05:10:48.643Z,28.80
2023-02-12T05:11:48.813Z,26.90
2023-02-12T05:12:48.621Z,28.90
2023-02-12T05:13:48.590Z,28.70
2023-02-12T05:14:48.610Z,31.30
2023-02-12T05:15:48.572Z,24.90
2023-02-12T05:16:48.593Z,27.00
2023-02-12T05:17:48.528Z,38.70
2023-02-12T05:18:48.515Z,32.00
2023-02-12T05:19:48.500Z,31.60
2023-02-12T05:20:48.497Z,33.90
2023-02-12T05:21:48.504Z,32.90
2023-02-12T05:22:48.458Z,27.80
2023-02-12T05:23:48.477Z,31.50
2023-02-12T05:24:48.444Z,26.60
2023-02-12T05:25:48.402Z,29.60
2023-02-12T05:26:48.392Z,34.00
2023-02-12T05:27:48.361Z,26.30
2023-02-12T05:28:48.428Z,32.90
2023-02-12T05:29:48.404Z,34.60
2023-02-12T05:30:48.394Z,26.50
2023-02-12T05:31:48.388Z,28.60
2023-02-12T05:32:48.273Z,31.60
2023-02-12T05:33:48.261Z,34.40
2023-02-12T05:34:48.225Z,33.50
2023-02-12T05:35:48.236Z,33.80
2023-02-12T05:36:48.292Z,37.10
2023-02-12T05:37:48.203Z,35.10
2023-02-12T05:38:48.163Z,47.40
2023-02-12T05:39:48.153Z,39.30
2023-02-12T05:40:48.124Z,35.70
2023-02-12T05:41:48.163Z,35.30
2023-02-12T05:42:48.133Z,31.10
2023-02-12T05:43:49.760Z,39.00
2023-02-12T05:44:49.062Z,38.80
2023-02-12T05:45:48.046Z,38.60
2023-02-12T05:46:48.110Z,34.40
2023-02-12T05:47:48.015Z,34.80
2023-02-12T05:48:48.022Z,42.20
2023-02-12T05:49:47.975Z,41.60
2023-02-12T05:50:47.973Z,41.80
2023-02-12T05:51:47.972Z,46.20
2023-02-12T05:52:47.952Z,40.50
2023-02-12T05:53:47.901Z,31.60
2023-02-12T05:54:47.904Z,32.00
2023-02-12T05:55:47.867Z,32.30
2023-02-12T05:56:47.898Z,44.90
2023-02-12T05:57:47.850Z,39.80
2023-02-12T05:58:47.828Z,44.50
2023-02-12T05:59:47.816Z,48.80
2023-02-12T06:00:47.876Z,34.60
2023-02-12T06:01:47.798Z,46.10
2023-02-12T06:02:47.755Z,42.90
2023-02-12T06:03:47.785Z,60.80
2023-02-12T06:04:48.729Z,47.20
2023-02-12T06:05:48.692Z,50.10
2023-02-12T06:06:47.719Z,46.20
2023-02-12T06:07:47.680Z,31.90
2023-02-12T06:08:47.649Z,35.20
2023-02-12T06:09:47.637Z,37.90
2023-02-12T06:10:47.610Z,35.10
2023-02-12T06:11:47.653Z,28.60
2023-02-12T06:12:47.598Z,30.80
2023-02-12T06:13:47.560Z,31.80
2023-02-12T06:14:47.565Z,31.80
2023-02-12T06:15:47.545Z,36.00
2023-02-12T06:16:47.542Z,32.80
2023-02-12T06:17:47.483Z,32.80
2023-02-12T06:18:47.485Z,33.60
2023-02-12T06:19:47.464Z,28.80
2023-02-12T06:20:47.449Z,30.20
2023-02-12T06:21:47.531Z,25.80
2023-02-12T06:22:47.426Z,25.70
2023-02-12T06:23:47.412Z,23.10
2023-02-12T06:24:47.370Z,31.40
2023-02-12T06:25:47.389Z,31.10
2023-02-12T06:26:47.406Z,29.70
2023-02-12T06:27:47.317Z,31.10
2023-02-12T06:28:47.304Z,28.00
2023-02-12T06:29:47.320Z,41.10
2023-02-12T06:30:47.432Z,32.80
2023-02-12T06:31:47.469Z,30.40
2023-02-12T06:32:47.229Z,24.20
2023-02-12T06:33:47.222Z,23.40
2023-02-12T06:34:47.197Z,30.90
2023-02-12T06:35:47.196Z,23.50
2023-02-12T06:36:47.205Z,22.20
2023-02-12T06:37:47.142Z,33.40
2023-02-12T06:38:47.130Z,36.80
2023-02-12T06:39:47.101Z,35.90
2023-02-12T06:40:47.088Z,45.20
2023-02-12T06:41:47.104Z,28.60
2023-02-12T06:42:47.056Z,23.40
2023-02-12T06:43:47.047Z,29.40
2023-02-12T06:44:47.020Z,36.80
2023-02-12T06:45:47.004Z,28.40
2023-02-12T06:46:47.122Z,35.00
2023-02-12T06:47:46.977Z,25.70
2023-02-12T06:48:46.961Z,28.00
2023-02-12T06:49:46.956Z,29.60
2023-02-12T06:50:47.948Z,32.30
2023-02-12T06:51:46.968Z,38.60
2023-02-12T06:52:46.901Z,26.60
2023-02-12T06:53:46.870Z,39.30
2023-02-12T06:54:46.880Z,26.60
2023-02-12T06:55:46.823Z,22.50
2023-02-12T06:56:46.810Z,30.10
2023-02-12T06:57:46.833Z,24.80
2023-02-12T06:58:46.775Z,26.10
2023-02-12T06:59:46.757Z,29.60
2023-02-12T07:00:46.770Z,27.20
2023-02-12T07:01:46.741Z,25.50
2023-02-12T07:02:46.733Z,36.70
2023-02-12T07:03:46.722Z,32.60
2023-02-12T07:04:46.673Z,32.10
2023-02-12T07:05:46.661Z,31.40
2023-02-12T07:06:46.645Z,30.10
2023-02-12T07:07:46.656Z,25.10
2023-02-12T07:08:46.638Z,34.10
2023-02-12T07:09:46.587Z,38.70
2023-02-12T07:10:46.614Z,36.70
2023-02-12T07:11:46.557Z,32.20
2023-02-12T07:12:46.552Z,37.40
2023-02-12T07:13:46.518Z,25.10
2023-02-12T07:14:46.491Z,29.80
2023-02-12T07:15:46.473Z,29.40
2023-02-12T07:16:46.585Z,29.60
2023-02-12T07:17:46.477Z,28.60
2023-02-12T07:18:46.459Z,27.30
2023-02-12T07:19:46.400Z,34.40
2023-02-12T07:20:46.436Z,25.80
2023-02-12T07:21:46.380Z,26.60
2023-02-12T07:22:46.392Z,27.30
2023-02-12T07:23:47.933Z,31.50
2023-02-12T07:24:46.330Z,35.30
2023-02-12T07:25:46.292Z,38.00
2023-02-12T07:26:46.328Z,34.70
2023-02-12T07:27:46.295Z,31.10
2023-02-12T07:28:46.263Z,31.70
2023-02-12T07:29:46.289Z,24.90
2023-02-12T07:30:46.244Z,22.80
2023-02-12T07:31:46.245Z,21.80
2023-02-12T07:32:46.242Z,29.80
2023-02-12T07:33:46.273Z,32.10
2023-02-12T07:34:46.144Z,23.60
2023-02-12T07:35:46.124Z,30.40
2023-02-12T07:36:46.118Z,38.30
2023-02-12T07:37:46.123Z,31.20
2023-02-12T07:38:46.079Z,22.80
2023-02-12T07:39:46.060Z,24.50
2023-02-12T07:40:46.041Z,24.00
2023-02-12T07:41:46.077Z,26.40
2023-02-12T07:42:46.029Z,21.30
2023-02-12T07:43:46.010Z,33.30
2023-02-12T07:44:45.972Z,27.50
2023-02-12T07:45:46.000Z,28.30
2023-02-12T07:46:48.349Z,21.30
2023-02-12T07:47:46.947Z,30.10
2023-02-12T07:48:45.974Z,22.70
2023-02-12T07:49:45.888Z,25.40
2023-02-12T07:50:45.879Z,33.90
2023-02-12T07:51:45.851Z,31.90
2023-02-12T07:52:45.881Z,39.70
2023-02-12T07:53:45.818Z,32.50
2023-02-12T07:54:45.808Z,25.80
2023-02-12T07:55:45.853Z,25.90
2023-02-12T07:56:45.768Z,37.20
2023-02-12T07:57:45.777Z,64.10
2023-02-12T07:58:45.749Z,46.60
2023-02-12T07:59:45.740Z,43.50
2023-02-12T08:00:45.692Z,43.20
2023-02-12T08:01:45.722Z,26.80
2023-02-12T08:02:45.739Z,91.80
2023-02-12T08:03:45.680Z,119.60
2023-02-12T08:04:45.705Z,147.80
2023-02-12T08:05:45.656Z,44.70
2023-02-12T08:06:45.601Z,63.60
2023-02-12T08:07:45.679Z,49.20
2023-02-12T08:08:45.591Z,53.50
2023-02-12T08:09:45.552Z,180.00
2023-02-12T08:10:45.545Z,187.70
2023-02-12T08:11:45.522Z,78.40
2023-02-12T08:12:45.525Z,218.20
2023-02-12T08:13:45.504Z,133.90
2023-02-12T08:14:45.475Z,93.70
2023-02-12T08:15:45.448Z,78.00
2023-02-12T08:16:45.468Z,168.60
2023-02-12T08:17:46.467Z,51.50
2023-02-12T08:18:45.428Z,86.80
2023-02-12T08:19:45.425Z,59.20
2023-02-12T08:20:45.360Z,54.90
2023-02-12T08:21:45.341Z,33.80
2023-02-12T08:23:11.217Z,47.40
2023-02-12T08:23:45.315Z,73.90
2023-02-12T08:24:45.332Z,28.50
2023-02-12T08:25:45.276Z,28.20
2023-02-12T08:26:45.439Z,28.50
2023-02-12T08:27:45.238Z,27.20
2023-02-12T08:28:45.301Z,51.30
2023-02-12T08:29:45.209Z,52.20
2023-02-12T08:30:45.257Z,29.90
2023-02-12T08:31:45.236Z,109.50
2023-02-12T08:32:45.145Z,47.10
2023-02-12T08:33:45.175Z,47.10
2023-02-12T08:34:45.177Z,117.00
2023-02-12T08:35:45.091Z,68.70
2023-02-12T08:36:45.073Z,43.30
2023-02-12T08:37:45.069Z,26.50
2023-02-12T08:38:45.079Z,32.70
2023-02-12T08:39:45.029Z,40.20
2023-02-12T08:40:45.014Z,76.50
2023-02-12T08:41:45.003Z,213.40
2023-02-12T08:42:44.981Z,73.30
2023-02-12T08:43:44.990Z,248.40
2023-02-12T08:44:44.929Z,46.10
2023-02-12T08:45:44.927Z,40.20
2023-02-12T08:46:44.909Z,41.50
2023-02-12T08:47:44.916Z,30.30
2023-02-12T08:48:44.882Z,25.40
2023-02-12T08:49:44.861Z,42.90
2023-02-12T08:50:44.889Z,41.80
2023-02-12T08:51:44.797Z,33.50
2023-02-12T08:52:44.794Z,87.10
2023-02-12T08:53:44.801Z,41.50
2023-02-12T08:54:44.751Z,206.60
2023-02-12T08:55:44.728Z,53.60
2023-02-12T08:56:44.715Z,43.50
2023-02-12T08:57:44.694Z,78.80
2023-02-12T08:58:44.766Z,42.10
2023-02-12T08:59:44.665Z,52.20
2023-02-12T09:00:44.648Z,72.90
2023-02-12T09:01:44.647Z,31.10
2023-02-12T09:02:44.727Z,27.60
2023-02-12T09:03:44.634Z,69.80
2023-02-12T09:04:44.589Z,26.80
2023-02-12T09:05:44.570Z,44.20
2023-02-12T09:06:44.543Z,36.30
2023-02-12T09:07:44.540Z,32.30
2023-02-12T09:08:44.562Z,34.10
2023-02-12T09:09:44.499Z,44.10
2023-02-12T09:10:44.489Z,40.20
2023-02-12T09:11:44.464Z,41.10
2023-02-12T09:12:44.445Z,31.70
2023-02-12T09:13:44.450Z,25.90
2023-02-12T09:14:44.446Z,28.30
2023-02-12T09:15:45.059Z,37.10
2023-02-12T09:16:45.500Z,30.50
2023-02-12T09:17:44.359Z,36.20
2023-02-12T09:18:44.363Z,39.50
2023-02-12T09:19:44.319Z,29.60
2023-02-12T09:20:44.307Z,24.40
2023-02-12T09:21:44.302Z,29.20
2023-02-12T09:22:44.275Z,28.20
2023-02-12T09:23:44.289Z,28.50
2023-02-12T09:24:44.247Z,25.20
2023-02-12T09:25:44.228Z,32.20
2023-02-12T09:26:44.205Z,29.50
2023-02-12T09:27:44.210Z,26.70
2023-02-12T09:28:44.206Z,31.90
2023-02-12T09:29:44.147Z,32.50
2023-02-12T09:30:44.234Z,28.80
2023-02-12T09:31:44.253Z,32.30
2023-02-12T09:32:44.096Z,32.00
2023-02-12T09:33:44.113Z,26.10
2023-02-12T09:34:44.058Z,23.70
2023-02-12T09:35:44.041Z,23.10
2023-02-12T09:36:44.032Z,26.10
2023-02-12T09:37:44.002Z,24.10
2023-02-12T09:38:44.036Z,27.10
2023-02-12T09:39:43.999Z,29.10
2023-02-12T09:40:44.000Z,28.30
2023-02-12T09:41:43.953Z,30.20
2023-02-12T09:42:43.920Z,29.00
2023-02-12T09:43:43.962Z,23.50
2023-02-12T09:44:43.885Z,22.70
2023-02-12T09:45:43.926Z,34.70
2023-02-12T09:46:43.946Z,30.80
2023-02-12T09:47:43.864Z,29.00
2023-02-12T09:48:43.865Z,33.70
2023-02-12T09:49:43.800Z,25.80
2023-02-12T09:50:43.809Z,27.60
2023-02-12T09:51:43.777Z,27.30
2023-02-12T09:52:43.750Z,31.10
2023-02-12T09:53:43.773Z,24.70
2023-02-12T09:54:43.714Z,34.10
2023-02-12T09:55:43.697Z,34.30
2023-02-12T09:56:43.676Z,27.60
2023-02-12T09:57:43.664Z,28.20
2023-02-12T09:58:43.696Z,23.10
2023-02-12T09:59:43.620Z,22.00
2023-02-12T10:00:43.641Z,21.00
2023-02-12T10:01:43.664Z,21.40
2023-02-12T10:02:43.592Z,22.90
2023-02-12T10:03:43.594Z,22.40
2023-02-12T10:04:58.758Z,29.60
2023-02-12T10:05:45.537Z,30.60
2023-02-12T10:06:43.526Z,28.40
2023-02-12T10:07:43.510Z,21.30
2023-02-12T10:08:43.526Z,22.60
2023-02-12T10:09:43.458Z,21.50
2023-02-12T10:10:43.472Z,22.40
2023-02-12T10:11:43.426Z,29.00
2023-02-12T10:12:43.453Z,29.40
2023-02-12T10:13:43.428Z,30.90
2023-02-12T10:14:43.374Z,20.60
2023-02-12T10:15:43.390Z,21.00
2023-02-12T10:16:43.404Z,20.90
2023-02-12T10:17:43.346Z,22.80
2023-02-12T10:18:43.340Z,22.70
2023-02-12T10:19:43.295Z,24.60
2023-02-12T10:20:43.310Z,24.60
2023-02-12T10:21:43.265Z,23.80
2023-02-12T10:22:56.051Z,25.00
2023-02-12T10:23:45.267Z,19.60
2023-02-12T10:24:43.204Z,27.90
2023-02-12T10:25:43.189Z,22.50
2023-02-12T10:26:43.187Z,28.00
2023-02-12T10:27:43.165Z,25.90
2023-02-12T10:28:43.230Z,24.40
2023-02-12T10:29:43.122Z,27.80
2023-02-12T10:30:43.124Z,22.80
2023-02-12T10:31:43.198Z,25.10
2023-02-12T10:32:43.103Z,23.20
2023-02-12T10:33:43.142Z,19.40
2023-02-12T10:34:43.049Z,27.00
2023-02-12T10:35:43.016Z,28.70
2023-02-12T10:36:43.013Z,22.80
2023-02-12T10:37:42.979Z,22.40
2023-02-12T10:38:43.030Z,21.10
2023-02-12T10:39:42.995Z,20.10
2023-02-12T10:40:42.994Z,20.30
2023-02-12T10:41:42.906Z,24.50
2023-02-12T10:42:42.887Z,27.30
2023-02-12T10:43:42.911Z,27.90
2023-02-12T10:44:42.875Z,28.30
2023-02-12T10:45:42.858Z,24.40
2023-02-12T10:46:42.892Z,22.30
2023-02-12T10:47:42.820Z,25.00
2023-02-12T10:48:42.794Z,25.80
2023-02-12T10:49:42.805Z,28.80
2023-02-12T10:50:42.747Z,23.00
2023-02-12T10:51:42.739Z,23.60
2023-02-12T10:52:42.735Z,23.90
2023-02-12T10:53:42.708Z,27.20
2023-02-12T10:54:42.771Z,26.80
2023-02-12T10:55:42.668Z,29.00
2023-02-12T10:56:42.652Z,23.40
2023-02-12T10:57:42.627Z,24.80
2023-02-12T10:58:42.617Z,22.50
2023-02-12T10:59:42.670Z,22.40
2023-02-12T11:00:42.595Z,25.30
2023-02-12T11:01:42.610Z,20.20
2023-02-12T11:02:42.550Z,17.70
2023-02-12T11:03:42.530Z,22.80
2023-02-12T11:04:42.575Z,20.30
2023-02-12T11:05:42.506Z,23.30
2023-02-12T11:06:42.485Z,23.70
2023-02-12T11:07:42.465Z,26.90
2023-02-12T11:08:42.469Z,23.30
2023-02-12T11:09:42.453Z,18.80
2023-02-12T11:10:42.416Z,20.20
2023-02-12T11:11:42.392Z,20.20
2023-02-12T11:12:42.369Z,19.50
2023-02-12T11:13:42.353Z,18.20
2023-02-12T11:14:42.381Z,25.00
2023-02-12T11:15:42.356Z,20.60
2023-02-12T11:16:42.313Z,21.60
2023-02-12T11:17:42.306Z,24.20
2023-02-12T11:18:42.276Z,18.80
2023-02-12T11:19:42.291Z,21.20
2023-02-12T11:20:42.238Z,15.00
2023-02-12T11:21:42.248Z,15.90
2023-02-12T11:22:42.208Z,12.80
2023-02-12T11:23:42.198Z,12.50
2023-02-12T11:24:42.203Z,13.80
2023-02-12T11:25:42.184Z,13.50
2023-02-12T11:26:42.163Z,16.20
2023-02-12T11:27:42.118Z,15.60
2023-02-12T11:28:42.221Z,13.30
2023-02-12T11:29:42.136Z,13.60
2023-02-12T11:30:42.104Z,15.30
2023-02-12T11:31:42.209Z,16.40
2023-02-12T11:32:42.048Z,14.60
2023-02-12T11:33:43.037Z,18.30
2023-02-12T11:34:42.028Z,14.20
2023-02-12T11:35:41.980Z,15.80
2023-02-12T11:36:41.980Z,14.30
2023-02-12T11:37:41.953Z,15.50
2023-02-12T11:38:41.935Z,13.00
2023-02-12T11:39:41.945Z,12.00
2023-02-12T11:40:41.909Z,12.20
2023-02-12T11:41:41.908Z,9.80
2023-02-12T11:42:41.867Z,9.10
2023-02-12T11:43:41.892Z,9.10
2023-02-12T11:44:41.879Z,11.80
2023-02-12T11:45:41.826Z,10.90
2023-02-12T11:46:41.842Z,11.90
2023-02-12T11:47:41.797Z,10.30
2023-02-12T11:48:41.844Z,12.70
2023-02-12T11:49:44.143Z,10.50
2023-02-12T11:50:42.753Z,13.10
2023-02-12T11:51:41.756Z,11.90
2023-02-12T11:52:41.702Z,10.70
2023-02-12T11:53:41.713Z,11.50
2023-02-12T11:54:41.699Z,10.90
2023-02-12T11:55:41.695Z,10.50
2023-02-12T11:56:41.641Z,11.00
2023-02-12T11:57:41.617Z,12.50
2023-02-12T11:58:41.614Z,13.70
2023-02-12T11:59:41.621Z,12.40
2023-02-12T12:00:41.646Z,13.90
2023-02-12T12:01:41.590Z,12.50
2023-02-12T12:02:42.565Z,13.40
2023-02-12T12:03:41.508Z,13.90
2023-02-12T12:04:41.521Z,15.50
2023-02-12T12:05:41.481Z,13.80
2023-02-12T12:06:41.472Z,15.70
2023-02-12T12:07:41.440Z,14.00
2023-02-12T12:08:41.428Z,12.00
2023-02-12T12:09:41.441Z,11.30
2023-02-12T12:10:41.408Z,12.30
2023-02-12T12:11:41.378Z,14.00
2023-02-12T12:12:41.348Z,13.90
2023-02-12T12:13:41.332Z,13.20
2023-02-12T12:14:41.368Z,13.80
2023-02-12T12:15:41.336Z,12.20
2023-02-12T12:16:41.345Z,12.40
2023-02-12T12:17:41.260Z,14.40
2023-02-12T12:18:41.289Z,13.60
2023-02-12T12:19:41.257Z,13.40
2023-02-12T12:20:41.207Z,12.40
2023-02-12T12:21:41.198Z,13.20
2023-02-12T12:22:41.282Z,12.90
2023-02-12T12:23:41.172Z,15.20
2023-02-12T12:24:41.178Z,14.30
2023-02-12T12:25:41.145Z,12.50
2023-02-12T12:26:41.116Z,12.90
2023-02-12T12:27:41.131Z,12.10
2023-02-12T12:28:41.198Z,12.70
2023-02-12T12:29:41.091Z,13.10
2023-02-12T12:30:41.199Z,12.30
2023-02-12T12:31:41.064Z,14.70
2023-02-12T12:32:41.010Z,14.90
2023-02-12T12:33:41.042Z,14.60
2023-02-12T12:34:40.995Z,15.20
2023-02-12T12:35:40.964Z,14.10
2023-02-12T12:36:40.935Z,14.40
2023-02-12T12:37:40.917Z,15.70
2023-02-12T12:38:40.897Z,14.70
2023-02-12T12:39:40.921Z,15.40
2023-02-12T12:40:40.862Z,13.60
2023-02-12T12:41:40.851Z,17.20
2023-02-12T12:42:40.844Z,14.70
2023-02-12T12:43:40.806Z,14.50
2023-02-12T12:44:40.826Z,15.50
2023-02-12T12:45:40.844Z,15.70
2023-02-12T12:46:40.793Z,16.70
2023-02-12T12:47:40.750Z,17.20
2023-02-12T12:48:40.756Z,15.70
2023-02-12T12:49:40.780Z,15.50
2023-02-12T12:50:40.689Z,14.00
2023-02-12T12:51:40.674Z,12.80
2023-02-12T12:52:40.658Z,14.60